Time;durP1;ratioP1;P1;durP2;ratioP2;P2;SDS_P1;SDS_P2;PMS_P1;PMS_P2;Temp;Humidity;BMP_temperature;BMP_pressure;BME280_temperature;BME280_humidity;BME280_pressure;Samples;Min_cycle;Max_cycle;Signal;HPM_P1;HPM_P2
2022/10/26 05:16:46;;;;;;;;;;;;;;;;;;;;;
2022/10/26 05:19:34;;;;;;;79.20;36.03;;;10.70;99.90;;;;;;6339102;22;20074;-85
2022/10/26 05:22:22;;;;;;;69.30;32.65;;;10.70;99.90;;;;;;6339449;22;20370;-85
2022/10/26 05:25:02;;;;;;;67.50;36.45;;;10.70;99.90;;;;;;6339472;22;19991;-85
2022/10/26 05:28:10;;;;;;;55.70;31.65;;;10.80;99.90;;;;;;6311612;22;20408;-85
2022/10/26 05:34:52;;;;;;;74.55;37.13;;;10.80;99.90;;;;;;6157345;23;20498;-84
2022/10/26 05:37:35;;;;;;;88.28;44.92;;;10.80;99.90;;;;;;6158365;23;20001;-84
2022/10/26 05:40:07;;;;;;;100.75;46.88;;;10.80;99.90;;;;;;6182495;23;20430;-85
2022/10/26 05:42:38;;;;;;;89.65;45.50;;;10.80;99.90;;;;;;6184233;23;20005;-85
2022/10/26 05:45:07;;;;;;;78.43;41.65;;;10.80;99.90;;;;;;6185184;23;20000;-85
2022/10/26 05:47:56;;;;;;;84.03;41.25;;;10.90;99.90;;;;;;6185547;23;20001;-84
2022/10/26 05:50:35;;;;;;;79.60;39.15;;;10.90;99.90;;;;;;6184908;23;20001;-85
2022/10/26 05:53:08;;;;;;;89.63;42.10;;;11.00;99.90;;;;;;6185027;23;20326;-85
2022/10/26 05:55:35;;;;;;;90.35;41.00;;;11.00;99.90;;;;;;6185243;23;20406;-84
2022/10/26 05:58:08;;;;;;;89.63;43.53;;;11.00;99.90;;;;;;6185164;23;20048;-85
2022/10/26 06:00:37;;;;;;;91.88;42.17;;;11.10;99.90;;;;;;6184826;23;20044;-84
2022/10/26 06:03:31;;;;;;;94.93;45.22;;;11.20;99.90;;;;;;6184783;23;20008;-85
2022/10/26 06:06:02;;;;;;;103.38;44.47;;;11.20;99.90;;;;;;6240885;23;20001;-84
2022/10/26 06:08:28;;;;;;;89.97;42.33;;;11.20;99.90;;;;;;6245477;23;19999;-84
2022/10/26 06:10:58;;;;;;;84.00;42.03;;;11.30;99.90;;;;;;6315426;22;20210;-84
2022/10/26 06:13:24;;;;;;;87.07;41.97;;;11.30;99.90;;;;;;6341072;22;19998;-84
2022/10/26 06:15:56;;;;;;;90.07;42.00;;;11.40;99.90;;;;;;6313023;22;20437;-84
2022/10/26 06:18:43;;;;;;;87.30;40.85;;;11.50;99.90;;;;;;6340938;22;20003;-84
2022/10/26 06:21:29;;;;;;;73.45;36.70;;;11.60;99.90;;;;;;6313106;22;20044;-83
2022/10/26 06:24:29;;;;;;;61.63;31.63;;;11.70;99.90;;;;;;6340201;22;20026;-82
2022/10/26 06:27:23;;;;;;;68.35;34.60;;;11.90;99.90;;;;;;6313588;22;20097;-83
2022/10/26 06:29:53;;;;;;;59.22;29.75;;;12.00;99.90;;;;;;6313215;22;20356;-83
2022/10/26 06:32:21;;;;;;;62.17;30.35;;;12.10;99.90;;;;;;6312950;22;20343;-83
2022/10/26 06:34:49;;;;;;;60.33;31.38;;;12.20;99.90;;;;;;6313136;22;20003;-83
2022/10/26 06:37:16;;;;;;;54.05;25.42;;;12.30;99.90;;;;;;6341159;22;19998;-83
2022/10/26 06:39:46;;;;;;;51.47;26.08;;;12.40;99.90;;;;;;6340476;22;19998;-84
2022/10/26 06:42:12;;;;;;;46.95;25.88;;;12.50;99.90;;;;;;6340262;22;20345;-82
2022/10/26 06:44:38;;;;;;;57.20;25.40;;;12.60;99.90;;;;;;6340471;22;20002;-83
2022/10/26 06:47:20;;;;;;;45.38;25.63;;;12.60;99.90;;;;;;6313006;22;19998;-83
2022/10/26 06:49:58;;;;;;;44.53;22.90;;;12.70;99.90;;;;;;6312863;22;19991;-84
2022/10/26 06:52:27;;;;;;;44.83;24.55;;;12.80;99.90;;;;;;6312515;22;19995;-85
2022/10/26 06:54:54;;;;;;;48.10;22.48;;;12.80;99.90;;;;;;6340390;22;19995;-84
2022/10/26 06:57:22;;;;;;;38.95;19.48;;;12.90;99.90;;;;;;6340635;22;20089;-83
2022/10/26 07:00:05;;;;;;;39.17;17.13;;;13.00;99.90;;;;;;6340455;22;19994;-84
2022/10/26 07:02:31;;;;;;;32.72;16.83;;;13.10;99.90;;;;;;6313123;22;20070;-84
2022/10/26 07:04:57;;;;;;;29.17;14.77;;;13.20;99.90;;;;;;6340093;22;20056;-84
2022/10/26 07:07:25;;;;;;;35.17;17.30;;;13.30;99.90;;;;;;6312764;22;20022;-84
2022/10/26 07:09:51;;;;;;;38.33;19.30;;;13.40;99.90;;;;;;6340164;22;20293;-84
2022/10/26 07:12:17;;;;;;;36.58;21.40;;;13.50;99.90;;;;;;6312850;22;19995;-84
2022/10/26 07:14:43;;;;;;;53.53;27.70;;;13.60;99.90;;;;;;6340203;22;20089;-85
2022/10/26 07:17:09;;;;;;;39.50;21.58;;;13.70;99.90;;;;;;6312688;22;20060;-84
2022/10/26 07:19:35;;;;;;;45.33;20.98;;;13.80;99.90;;;;;;6312623;22;19991;-85
2022/10/26 07:22:03;;;;;;;42.75;22.30;;;13.90;99.90;;;;;;6340309;22;19991;-84
2022/10/26 07:24:53;;;;;;;51.72;31.13;;;14.00;99.90;;;;;;6312247;22;19999;-85
2022/10/26 07:27:19;;;;;;;41.60;25.77;;;14.20;99.90;;;;;;6339858;22;20048;-85
2022/10/26 07:29:47;;;;;;;32.33;19.48;;;14.30;99.90;;;;;;6340413;22;19999;-85
2022/10/26 07:32:34;;;;;;;30.40;17.65;;;14.40;99.90;;;;;;6340306;22;19994;-84
2022/10/26 07:35:36;;;;;;;;;;;;;;;;;;;;;
2022/10/26 07:38:37;;;;;;;40.95;23.55;;;14.60;99.90;;;;;;6339548;22;20073;-85
2022/10/26 07:41:08;;;;;;;32.58;17.90;;;14.80;99.90;;;;;;6312592;22;20048;-84
2022/10/26 07:44:05;;;;;;;41.78;24.83;;;14.90;99.90;;;;;;6310458;22;20319;-85
2022/10/26 07:47:16;;;;;;;;;;;;;;;;;;;;;
2022/10/26 07:49:47;;;;;;;38.40;19.88;;;15.20;99.90;;;;;;6339017;22;20070;-85
2022/10/26 07:52:16;;;;;;;29.75;15.05;;;15.30;99.90;;;;;;6312168;22;19999;-85
2022/10/26 07:58:54;;;;;;;24.85;12.98;;;15.60;99.90;;;;;;6238231;23;20003;-84
2022/10/26 08:14:38;;;;;;;19.90;9.90;;;15.90;99.90;;;;;;5461757;22;21034925;-82
2022/10/26 08:17:07;;;;;;;16.00;7.43;;;16.60;99.90;;;;;;6350608;22;19998;-83
2022/10/26 08:19:40;;;;;;;12.43;6.05;;;16.80;99.90;;;;;;6352040;22;20459;-85
2022/10/26 08:22:29;;;;;;;8.48;5.32;;;16.90;99.90;;;;;;6351267;22;20002;-86
2022/10/26 08:25:33;;;;;;;19.90;6.63;;;17.10;99.90;;;;;;6194919;23;20008;-85
2022/10/26 08:28:03;;;;;;;12.32;5.22;;;17.30;99.90;;;;;;6078863;23;20003;-85
2022/10/26 08:30:32;;;;;;;11.35;5.32;;;17.40;99.90;;;;;;6103159;23;20002;-84
2022/10/26 08:33:09;;;;;;;8.82;5.00;;;17.50;99.90;;;;;;6078484;23;20006;-85
2022/10/26 08:35:35;;;;;;;7.30;4.32;;;17.60;99.90;;;;;;6078578;23;20116;-84
2022/10/26 08:38:00;;;;;;;12.27;4.63;;;17.70;99.90;;;;;;6103044;23;19998;-85
2022/10/26 08:40:30;;;;;;;8.57;5.13;;;17.80;99.90;;;;;;6078856;23;20323;-85
2022/10/26 08:43:16;;;;;;;10.05;5.45;;;18.00;99.90;;;;;;6078713;23;20002;-86
2022/10/26 08:45:51;;;;;;;11.88;5.05;;;18.10;99.90;;;;;;6103177;23;20443;-87
2022/10/26 08:48:24;;;;;;;10.45;5.18;;;18.30;99.90;;;;;;6103102;23;20379;-85
2022/10/26 08:50:52;;;;;;;16.17;5.82;;;18.40;99.90;;;;;;6078674;23;20097;-86
2022/10/26 08:54:01;;;;;;;8.30;5.40;;;18.40;99.90;;;;;;6078521;23;20006;-86
2022/10/26 08:57:04;;;;;;;9.45;4.70;;;18.50;99.90;;;;;;6218128;23;19996;-85
2022/10/26 08:59:41;;;;;;;10.18;5.88;;;18.60;99.90;;;;;;6328645;22;19990;-86
2022/10/26 09:02:12;;;;;;;8.63;5.45;;;18.70;99.90;;;;;;6350657;22;20005;-86
2022/10/26 09:04:52;;;;;;;13.20;4.97;;;18.80;99.90;;;;;;6351785;22;19999;-87
2022/10/26 09:07:46;;;;;;;10.32;5.95;;;19.00;99.90;;;;;;6379223;22;20310;-85
2022/10/26 09:10:26;;;;;;;11.40;6.20;;;19.10;99.90;;;;;;6379584;22;20001;-84
2022/10/26 09:13:26;;;;;;;14.38;6.72;;;19.20;99.90;;;;;;6350981;22;20026;-85
2022/10/26 09:16:06;;;;;;;13.90;5.90;;;19.20;99.90;;;;;;6338577;22;20018;-84
2022/10/26 09:18:46;;;;;;;9.18;4.68;;;19.40;99.90;;;;;;6339206;22;19999;-85
2022/10/26 09:21:38;;;;;;;6.95;3.72;;;19.60;99.90;;;;;;6339216;22;20025;-86
2022/10/26 09:24:27;;;;;;;8.80;3.80;;;19.70;99.90;;;;;;6339124;22;20011;-87
2022/10/26 09:26:54;;;;;;;11.00;4.05;;;19.80;99.90;;;;;;6339082;22;19995;-85
2022/10/26 09:29:44;;;;;;;10.43;5.35;;;20.10;99.90;;;;;;6339280;22;20053;-86
2022/10/26 09:32:40;;;;;;;13.20;5.05;;;20.20;99.90;;;;;;6324212;22;20018;-85
2022/10/26 09:39:16;;;;;;;;;;;;;;;;;;;;;
2022/10/26 09:49:31;;;;;;;5.75;2.72;;;21.10;99.90;;;;;;6153914;23;20009;-86
2022/10/26 09:56:24;;;;;;;8.60;3.88;;;21.20;97.10;;;;;;5980590;24;20015;-86
2022/10/26 10:02:42;;;;;;;7.38;3.97;;;21.00;98.00;;;;;;5952382;24;20392;-86
2022/10/26 10:05:36;;;;;;;8.18;3.88;;;21.00;97.80;;;;;;5953700;24;20009;-87
2022/10/26 10:08:33;;;;;;;7.80;4.28;;;21.10;99.50;;;;;;5916992;24;20001;-85
2022/10/26 10:11:38;;;;;;;7.18;4.72;;;21.30;99.70;;;;;;5925769;24;20005;-90
2022/10/26 10:17:37;;;;;;;13.48;4.75;;;21.50;98.80;;;;;;5817049;24;20334;-85
2022/10/26 10:20:11;;;;;;;9.93;6.03;;;21.70;97.30;;;;;;5817554;24;20074;-85
2022/10/26 10:23:28;;;;;;;8.77;6.55;;;21.80;98.40;;;;;;5816129;24;20018;-86
2022/10/26 10:28:59;;;;;;;8.70;5.78;;;;;;;;;;5790961;24;20087;-87
2022/10/26 10:32:03;;;;;;;9.60;6.00;;;21.80;94.90;;;;;;5798721;24;20128;-85
2022/10/26 10:35:20;;;;;;;11.25;6.13;;;21.70;95.90;;;;;;5844824;24;20006;-86
2022/10/26 10:38:37;;;;;;;13.48;7.32;;;21.50;97.40;;;;;;5833185;24;20003;-85
2022/10/26 10:41:03;;;;;;;10.70;5.03;;;21.40;95.20;;;;;;5871846;24;20014;-85
2022/10/26 10:44:06;;;;;;;8.10;5.78;;;21.50;96.00;;;;;;5929800;24;20088;-87
2022/10/26 10:46:36;;;;;;;7.80;5.57;;;21.70;95.70;;;;;;5930925;24;20013;-86
2022/10/26 10:49:24;;;;;;;9.27;5.60;;;22.20;93.20;;;;;;6082071;23;20002;-87
2022/10/26 10:51:53;;;;;;;13.85;5.97;;;;;;;;;;6215074;23;20035;-87
2022/10/26 10:54:40;;;;;;;13.95;6.90;;;22.70;91.50;;;;;;6218761;23;20413;-86
2022/10/26 10:57:23;;;;;;;9.13;4.68;;;22.40;86.10;;;;;;6218698;23;20004;-84
2022/10/26 11:00:05;;;;;;;9.40;5.93;;;;;;;;;;6254991;22;20002;-86
2022/10/26 11:02:34;;;;;;;8.98;6.90;;;;;;;;;;6312131;22;19998;-85
2022/10/26 11:05:19;;;;;;;10.93;6.13;;;;;;;;;;6312251;22;20472;-86
2022/10/26 11:08:12;;;;;;;8.98;5.38;;;;;;;;;;6312252;22;20022;-89
2022/10/26 11:10:43;;;;;;;10.02;4.70;;;;;;;;;;6332673;22;20030;-85
2022/10/26 11:13:17;;;;;;;10.00;4.93;;;;;;;;;;6312414;22;20081;-85
2022/10/26 11:15:44;;;;;;;7.57;5.10;;;;;;;;;;6329999;22;20267;-87
2022/10/26 11:18:40;;;;;;;7.30;4.80;;;;;;;;;;6338321;22;20407;-86
2022/10/26 11:21:43;;;;;;;6.63;2.53;;;22.70;76.50;;;;;;6187247;23;19997;-84
2022/10/26 11:24:27;;;;;;;7.25;2.72;;;22.60;73.30;;;;;;6188043;23;20004;-84
2022/10/26 11:27:11;;;;;;;5.28;2.55;;;22.60;77.10;;;;;;6188042;23;20123;-84
2022/10/26 11:30:06;;;;;;;6.93;2.83;;;22.50;76.20;;;;;;6212952;23;20005;-87
2022/10/26 11:32:51;;;;;;;7.85;3.53;;;;;;;;;;6187876;23;20007;-88
2022/10/26 11:35:30;;;;;;;8.55;4.88;;;;;;;;;;6186393;23;20016;-86
2022/10/26 11:53:28;;;;;;;8.65;6.15;;;;;;;;;;6153161;23;20128;-85
2022/10/26 11:55:54;;;;;;;10.95;6.47;;;;;;;;;;6127687;23;20072;-87
2022/10/26 11:58:25;;;;;;;8.27;6.22;;;;;;;;;;6202765;23;20436;-86
2022/10/26 12:01:07;;;;;;;11.15;6.35;;;;;;;;;;6217639;23;20492;-86
2022/10/26 12:03:44;;;;;;;;;;;;;;;;;;6218264;23;20443;-85
2022/10/26 12:06:10;;;;;;;6.00;5.40;;;;;;;;;;6218096;23;20319;-87
2022/10/26 12:11:47;;;;;;;7.15;4.75;;;;;;;;;;6212714;23;20007;-86
2022/10/26 12:14:23;;;;;;;7.88;5.20;;;;;;;;;;6242525;22;20075;-88
2022/10/26 12:16:52;;;;;;;8.23;5.82;;;;;;;;;;6218530;23;20000;-87
2022/10/26 12:19:26;;;;;;;5.97;5.38;;;;;;;;;;6218278;23;19992;-89
2022/10/26 12:21:56;;;;;;;9.57;5.53;;;;;;;;;;6325541;22;19997;-88
2022/10/26 12:24:51;;;;;;;5.55;5.05;;;;;;;;;;6338313;22;20292;-86
2022/10/26 12:28:15;;;;;;;5.53;4.97;;;;;;;;;;6338048;22;20002;-88
2022/10/26 12:30:24;;;;;;;6.88;5.55;;;;;;;;;;6330514;22;20358;-89
2022/10/26 12:33:04;;;;;;;8.55;5.95;;;;;;;;;;6338206;22;19999;-87
2022/10/26 12:35:43;;;;;;;6.45;4.75;;;;;;;;;;6335803;22;20006;-87
2022/10/26 12:38:39;;;;;;;7.60;5.40;;;;;;;;;;6337751;22;20075;-86
2022/10/26 12:41:06;;;;;;;8.32;5.43;;;;;;;;;;6337445;22;20378;-85
2022/10/26 12:43:42;;;;;;;7.35;4.70;;;;;;;;;;6337151;22;19999;-87
2022/10/26 12:46:17;;;;;;;6.63;4.78;;;;;;;;;;6337524;22;19999;-87
2022/10/26 12:51:41;;;;;;;5.57;5.03;;;23.30;57.80;;;;;;6275547;22;20057;-85
2022/10/26 12:54:06;;;;;;;8.73;5.18;;;23.20;55.50;;;;;;6276373;22;20038;-88
2022/10/26 12:56:55;;;;;;;10.68;6.63;;;23.00;56.50;;;;;;6250543;22;19992;-86
2022/10/26 12:59:39;;;;;;;12.23;6.30;;;22.90;57.70;;;;;;6276329;22;19992;-86
2022/10/26 13:02:25;;;;;;;9.20;5.93;;;22.90;58.20;;;;;;6275795;22;20003;-87
2022/10/26 13:05:14;;;;;;;11.93;5.90;;;22.90;55.90;;;;;;6276378;22;20031;-89
2022/10/26 13:07:53;;;;;;;7.22;5.85;;;22.70;56.20;;;;;;6235547;22;20308;-88
2022/10/26 13:10:27;;;;;;;8.23;5.80;;;22.50;54.70;;;;;;6250132;22;20008;-86
2022/10/26 13:12:59;;;;;;;10.10;6.25;;;22.40;56.30;;;;;;6276180;22;20010;-88
2022/10/26 13:15:56;;;;;;;11.93;6.13;;;22.30;55.60;;;;;;6275648;22;20012;-85
2022/10/26 13:18:22;;;;;;;10.98;5.35;;;22.20;57.70;;;;;;6275701;22;20023;-89
2022/10/26 13:21:08;;;;;;;9.13;5.93;;;22.00;57.70;;;;;;6275965;22;20079;-89
2022/10/26 13:23:40;;;;;;;7.68;5.43;;;21.90;58.60;;;;;;6275581;22;20317;-85
2022/10/26 13:26:26;;;;;;;8.77;5.15;;;21.90;58.50;;;;;;6275904;22;20004;-90
2022/10/26 13:28:59;;;;;;;9.18;4.75;;;21.80;58.60;;;;;;6313374;22;20021;-87
2022/10/26 13:31:27;;;;;;;7.47;4.85;;;21.60;59.80;;;;;;6339302;22;19995;-86
2022/10/26 13:34:19;;;;;;;11.95;5.28;;;21.60;58.70;;;;;;6339414;22;20003;-87
2022/10/26 13:36:58;;;;;;;10.38;4.13;;;21.50;59.10;;;;;;6340604;22;20074;-88
2022/10/26 13:39:45;;;;;;;7.18;4.15;;;21.40;58.20;;;;;;6339405;22;19999;-86
2022/10/26 13:42:48;;;;;;;7.55;4.20;;;21.40;59.00;;;;;;6338574;22;19999;-88
2022/10/26 13:45:18;;;;;;;11.15;4.72;;;21.30;59.40;;;;;;6333048;22;20003;-87
2022/10/26 13:47:54;;;;;;;9.13;4.03;;;21.30;59.20;;;;;;6339195;22;20006;-84
2022/10/26 13:50:31;;;;;;;7.47;4.10;;;21.30;59.20;;;;;;6338752;22;19994;-85
2022/10/26 13:53:06;;;;;;;7.88;3.75;;;21.20;59.00;;;;;;6338932;22;20076;-88
2022/10/26 13:55:49;;;;;;;11.80;5.93;;;21.20;58.90;;;;;;6340598;22;19991;-88
2022/10/26 13:58:51;;;;;;;12.30;6.22;;;21.20;60.00;;;;;;6334897;22;20025;-85
2022/10/26 14:01:23;;;;;;;11.27;5.45;;;21.10;61.20;;;;;;6305328;22;20378;-87
2022/10/26 14:03:49;;;;;;;;;;;21.10;60.90;;;;;;6339623;22;20036;-87
2022/10/26 14:06:27;;;;;;;9.95;4.95;;;21.00;61.50;;;;;;6340472;22;20310;-85
2022/10/26 14:08:57;;;;;;;10.38;4.85;;;21.00;61.20;;;;;;6338964;22;19995;-85
2022/10/26 14:11:37;;;;;;;15.93;4.10;;;20.90;63.00;;;;;;6340170;22;19995;-87
2022/10/26 14:14:03;;;;;;;10.15;5.50;;;20.90;62.40;;;;;;6338991;22;20052;-88
2022/10/26 14:16:32;;;;;;;7.93;4.65;;;20.90;62.80;;;;;;6344094;22;20072;-88
2022/10/26 14:18:58;;;;;;;7.70;4.50;;;20.90;63.50;;;;;;6343484;22;19994;-86
2022/10/26 14:21:24;;;;;;;9.63;6.15;;;20.80;63.70;;;;;;6343754;22;19994;-90
2022/10/26 14:24:03;;;;;;;11.70;6.25;;;20.80;64.00;;;;;;6343620;22;20010;-86
2022/10/26 14:26:37;;;;;;;10.73;5.38;;;20.80;64.40;;;;;;6343721;22;20081;-84
2022/10/26 14:29:03;;;;;;;8.35;5.22;;;20.80;64.70;;;;;;6344010;22;19994;-88
2022/10/26 14:31:32;;;;;;;12.63;5.43;;;20.70;65.80;;;;;;6343949;22;20051;-87
2022/10/26 14:34:00;;;;;;;17.80;7.22;;;20.70;66.10;;;;;;6371646;22;19998;-84
2022/10/26 14:36:35;;;;;;;13.60;5.47;;;20.70;66.80;;;;;;6344115;22;20337;-86
2022/10/26 14:39:08;;;;;;;10.32;5.15;;;20.60;67.30;;;;;;6371856;22;19994;-87
2022/10/26 14:41:35;;;;;;;19.27;7.38;;;20.50;67.70;;;;;;6371274;22;20399;-84
2022/10/26 14:44:02;;;;;;;16.40;7.80;;;20.50;68.40;;;;;;6343728;22;20370;-84
2022/10/26 14:46:34;;;;;;;16.50;5.93;;;20.40;69.80;;;;;;6343820;22;20036;-85
2022/10/26 14:49:01;;;;;;;17.63;5.50;;;20.30;69.70;;;;;;6343631;22;20373;-86
2022/10/26 14:51:29;;;;;;;8.55;4.93;;;20.40;69.40;;;;;;6371741;22;19991;-86
2022/10/26 14:53:59;;;;;;;6.85;4.75;;;20.40;69.50;;;;;;6343770;22;20002;-84
2022/10/26 14:56:34;;;;;;;8.53;5.07;;;20.40;70.50;;;;;;6371415;22;20001;-86
2022/10/26 14:59:18;;;;;;;14.05;6.00;;;20.30;71.10;;;;;;6371497;22;19998;-83
2022/10/26 15:02:09;;;;;;;12.00;5.70;;;20.20;71.10;;;;;;6343788;22;20033;-84
2022/10/26 15:05:12;;;;;;;10.02;5.55;;;20.10;72.20;;;;;;6353894;22;20002;-85
2022/10/26 15:07:42;;;;;;;22.17;10.80;;;20.10;73.90;;;;;;6298532;22;20089;-85
2022/10/26 15:10:36;;;;;;;30.70;14.90;;;19.90;74.50;;;;;;6342796;22;19990;-85
2022/10/26 15:13:24;;;;;;;23.95;12.80;;;19.80;75.80;;;;;;6328412;22;19998;-84
2022/10/26 15:15:52;;;;;;;16.70;9.18;;;19.70;77.30;;;;;;6370085;22;20010;-85
2022/10/26 15:18:32;;;;;;;17.30;7.55;;;19.50;77.60;;;;;;6343890;22;20085;-85
2022/10/26 15:20:58;;;;;;;12.35;6.50;;;19.40;78.70;;;;;;6343606;22;20030;-87
2022/10/26 15:23:26;;;;;;;18.13;7.97;;;19.30;80.30;;;;;;6343287;22;20025;-88
2022/10/26 15:25:56;;;;;;;19.52;9.48;;;19.30;81.10;;;;;;6343493;22;19998;-88
2022/10/26 15:28:38;;;;;;;22.92;11.48;;;19.20;81.70;;;;;;6343161;22;19995;-86
2022/10/26 15:31:33;;;;;;;17.10;8.57;;;19.10;83.70;;;;;;6371225;22;20406;-88
2022/10/26 15:34:10;;;;;;;16.52;7.25;;;19.00;86.10;;;;;;6370865;22;20021;-89
2022/10/26 15:36:37;;;;;;;22.83;8.55;;;18.90;87.80;;;;;;6343402;22;19994;-85
2022/10/26 15:39:03;;;;;;;22.63;8.70;;;18.70;90.10;;;;;;6343445;22;19994;-86
2022/10/26 15:41:31;;;;;;;25.95;10.60;;;18.60;92.00;;;;;;6343293;22;19990;-85
2022/10/26 15:44:00;;;;;;;23.08;9.63;;;18.60;93.50;;;;;;6370630;22;20034;-85
2022/10/26 15:46:35;;;;;;;28.05;10.52;;;18.50;95.80;;;;;;6343584;22;20020;-85
2022/10/26 15:49:06;;;;;;;18.05;9.30;;;18.40;97.50;;;;;;6343444;22;20085;-85
2022/10/26 15:51:33;;;;;;;26.27;10.32;;;18.30;99.60;;;;;;6343297;22;20043;-90
2022/10/26 15:54:02;;;;;;;24.85;10.63;;;18.30;99.90;;;;;;6370677;22;20406;-83
2022/10/26 15:56:29;;;;;;;25.58;10.77;;;18.30;99.90;;;;;;6371101;22;19990;-86
2022/10/26 15:58:56;;;;;;;30.90;11.88;;;18.20;99.90;;;;;;6370724;22;20002;-85
2022/10/26 16:01:24;;;;;;;43.97;17.70;;;18.10;99.90;;;;;;6370528;22;20389;-86
2022/10/26 16:03:51;;;;;;;50.60;19.88;;;18.00;99.90;;;;;;6370208;22;19998;-85
2022/10/26 16:06:20;;;;;;;36.50;16.48;;;18.00;99.90;;;;;;6342933;22;20040;-85
2022/10/26 16:08:50;;;;;;;27.67;10.65;;;18.00;99.90;;;;;;6342792;22;19999;-86
2022/10/26 16:11:16;;;;;;;26.13;11.48;;;18.00;99.90;;;;;;6343348;22;19997;-86
2022/10/26 16:13:42;;;;;;;22.05;10.70;;;18.10;99.90;;;;;;6342703;22;19999;-85
2022/10/26 16:16:18;;;;;;;30.65;12.07;;;18.10;99.90;;;;;;6370481;22;20041;-84
2022/10/26 16:18:44;;;;;;;49.03;23.23;;;18.10;99.90;;;;;;6342586;22;20001;-84
2022/10/26 16:21:15;;;;;;;33.00;17.10;;;18.10;99.90;;;;;;6343583;22;19994;-86
2022/10/26 16:23:44;;;;;;;39.37;18.17;;;18.00;99.90;;;;;;6343075;22;19998;-84
2022/10/26 16:26:10;;;;;;;50.55;27.13;;;18.00;99.90;;;;;;6344091;22;20223;-84
2022/10/26 16:28:36;;;;;;;99.90;59.65;;;17.90;99.90;;;;;;6345092;22;19990;-86
2022/10/26 16:31:05;;;;;;;272.55;143.35;;;17.80;99.90;;;;;;6372911;22;19997;-86
2022/10/26 16:33:31;;;;;;;255.98;138.43;;;17.70;99.90;;;;;;6372591;22;20379;-87
2022/10/26 16:35:58;;;;;;;209.75;111.85;;;17.70;99.90;;;;;;6344994;22;20395;-86
2022/10/26 16:38:25;;;;;;;66.40;35.35;;;17.60;99.90;;;;;;6344817;22;19998;-85
2022/10/26 16:41:04;;;;;;;76.90;42.42;;;17.50;99.90;;;;;;6344510;22;20024;-87
2022/10/26 16:43:31;;;;;;;73.97;33.72;;;17.40;99.90;;;;;;6344921;22;20001;-87
2022/10/26 16:45:58;;;;;;;57.95;29.05;;;17.40;99.90;;;;;;6344808;22;20003;-86
2022/10/26 16:48:24;;;;;;;75.70;39.88;;;17.40;99.90;;;;;;6344749;22;19998;-85
2022/10/26 16:50:50;;;;;;;101.32;56.83;;;17.30;99.90;;;;;;6344712;22;20021;-86
2022/10/26 16:53:16;;;;;;;150.25;88.32;;;17.20;99.90;;;;;;6372539;22;20399;-87
2022/10/26 16:55:42;;;;;;;181.65;103.25;;;17.20;99.90;;;;;;6344609;22;20419;-84
2022/10/26 16:58:09;;;;;;;90.70;47.50;;;17.10;99.90;;;;;;6344583;22;20014;-85
2022/10/26 17:00:36;;;;;;;85.10;45.28;;;17.00;99.90;;;;;;6344444;22;19998;-85
2022/10/26 17:03:03;;;;;;;89.95;46.15;;;17.00;99.90;;;;;;6372385;22;20001;-85
2022/10/26 17:05:29;;;;;;;95.47;51.50;;;17.00;99.90;;;;;;6344573;22;20002;-85
2022/10/26 17:07:55;;;;;;;90.82;49.65;;;16.90;99.90;;;;;;6372204;22;20001;-84
2022/10/26 17:10:21;;;;;;;87.40;50.53;;;16.90;99.90;;;;;;6344806;22;19998;-85
2022/10/26 17:12:46;;;;;;;93.60;52.50;;;16.80;99.90;;;;;;6344531;22;20403;-86
2022/10/26 17:15:16;;;;;;;111.55;57.83;;;16.80;99.90;;;;;;6343982;22;20017;-85
2022/10/26 17:17:42;;;;;;;108.97;56.22;;;16.80;99.90;;;;;;6344481;22;19991;-87
2022/10/26 17:20:09;;;;;;;123.03;58.60;;;16.80;99.90;;;;;;6344339;22;20036;-85
2022/10/26 17:22:34;;;;;;;122.72;56.70;;;16.80;99.90;;;;;;6344071;22;19999;-87
2022/10/26 17:25:00;;;;;;;106.53;54.20;;;16.80;99.90;;;;;;6344514;22;20077;-85
2022/10/26 17:27:26;;;;;;;117.15;56.72;;;16.80;99.90;;;;;;6344260;22;20063;-87
2022/10/26 17:29:52;;;;;;;116.72;57.30;;;16.70;99.90;;;;;;6371740;22;19986;-86
2022/10/26 17:32:17;;;;;;;114.40;60.70;;;16.70;99.90;;;;;;6344770;22;20081;-87
2022/10/26 17:34:43;;;;;;;120.40;61.42;;;16.70;99.90;;;;;;6344125;22;19999;-85
2022/10/26 17:37:09;;;;;;;127.05;65.43;;;16.70;99.90;;;;;;6344095;22;19998;-85
2022/10/26 17:39:35;;;;;;;129.35;65.60;;;16.60;99.90;;;;;;6372558;22;20001;-87
2022/10/26 17:42:00;;;;;;;149.68;73.82;;;16.60;99.90;;;;;;6344189;22;19995;-87
2022/10/26 17:44:27;;;;;;;253.20;124.43;;;16.60;99.90;;;;;;6344018;22;20292;-86
2022/10/26 17:46:52;;;;;;;272.45;136.13;;;16.50;99.90;;;;;;6344152;22;20077;-88
2022/10/26 17:49:18;;;;;;;259.02;127.38;;;16.60;99.90;;;;;;6344139;22;20082;-85
2022/10/26 17:51:44;;;;;;;231.25;116.80;;;16.50;99.90;;;;;;6371278;22;20014;-85
2022/10/26 17:54:10;;;;;;;223.35;111.18;;;16.50;99.90;;;;;;6371147;22;20065;-84
2022/10/26 17:56:35;;;;;;;174.43;90.15;;;16.40;99.90;;;;;;6343567;22;20028;-86
2022/10/26 17:59:04;;;;;;;133.00;70.90;;;16.50;99.90;;;;;;6343638;22;19994;-85
2022/10/26 18:01:30;;;;;;;125.82;65.60;;;16.40;99.90;;;;;;6371271;22;20014;-85
2022/10/26 18:03:56;;;;;;;156.82;80.95;;;16.40;99.90;;;;;;6371150;22;20311;-86
2022/10/26 18:06:23;;;;;;;197.52;97.85;;;16.40;99.90;;;;;;6343921;22;20030;-86
2022/10/26 18:08:49;;;;;;;188.98;95.40;;;16.40;99.90;;;;;;6343908;22;19996;-84
2022/10/26 18:11:18;;;;;;;193.07;93.13;;;16.40;99.90;;;;;;6343764;22;19998;-84
2022/10/26 18:13:43;;;;;;;197.40;98.50;;;16.40;99.90;;;;;;6343250;22;20002;-85
2022/10/26 18:16:13;;;;;;;227.65;108.32;;;16.30;99.90;;;;;;6343091;22;20372;-85
2022/10/26 18:18:40;;;;;;;329.05;153.48;;;16.30;99.90;;;;;;6343204;22;20001;-85
2022/10/26 18:21:11;;;;;;;334.13;151.02;;;16.30;99.90;;;;;;6371799;22;19994;-85
2022/10/26 18:23:37;;;;;;;255.65;115.07;;;16.30;99.90;;;;;;6343435;22;20003;-84
2022/10/26 18:26:17;;;;;;;313.67;138.05;;;16.20;99.90;;;;;;6371100;22;20002;-87
2022/10/26 18:28:43;;;;;;;479.08;220.43;;;16.20;99.90;;;;;;6343659;22;19994;-86
2022/10/26 18:31:11;;;;;;;612.63;292.70;;;16.20;99.90;;;;;;6343628;22;20054;-84
2022/10/26 18:33:38;;;;;;;729.70;370.73;;;16.10;99.90;;;;;;6371133;22;20415;-85
2022/10/26 18:36:09;;;;;;;739.42;387.95;;;16.00;99.90;;;;;;6343450;22;19995;-85
2022/10/26 18:38:35;;;;;;;643.80;325.90;;;16.00;99.90;;;;;;6370877;22;20303;-86
2022/10/26 18:41:01;;;;;;;383.80;178.30;;;15.90;99.90;;;;;;6343679;22;20223;-85
2022/10/26 18:43:28;;;;;;;389.13;176.63;;;15.90;99.90;;;;;;6371226;22;19994;-85
2022/10/26 18:46:11;;;;;;;460.17;223.15;;;15.90;99.90;;;;;;6370928;22;20002;-85
2022/10/26 18:48:37;;;;;;;349.05;159.23;;;15.90;99.90;;;;;;6343491;22;20059;-87
2022/10/26 18:51:04;;;;;;;461.25;233.45;;;15.80;99.90;;;;;;6371381;22;20333;-85
2022/10/26 18:53:35;;;;;;;167.05;76.15;;;15.80;99.90;;;;;;6370974;22;19998;-85
2022/10/26 18:56:03;;;;;;;176.18;86.90;;;15.70;99.90;;;;;;6343303;22;20043;-86
2022/10/26 18:58:37;;;;;;;223.38;114.00;;;15.70;99.90;;;;;;6343415;22;20490;-83
2022/10/26 19:01:09;;;;;;;169.25;88.57;;;15.70;99.90;;;;;;6343223;22;20002;-85
2022/10/26 19:03:35;;;;;;;;;;;15.70;99.90;;;;;;6343702;22;20002;-85
2022/10/26 19:06:28;;;;;;;49.00;23.50;;;15.60;99.90;;;;;;6371185;22;20253;-84
2022/10/26 19:08:54;;;;;;;31.40;14.93;;;15.60;99.90;;;;;;6339754;22;19998;-84
2022/10/26 19:11:22;;;;;;;29.67;13.90;;;15.60;99.90;;;;;;6342888;22;19998;-85
2022/10/26 19:13:52;;;;;;;33.22;14.13;;;15.60;99.90;;;;;;6370551;22;20010;-83
2022/10/26 19:16:26;;;;;;;26.15;12.32;;;15.60;99.90;;;;;;6371097;22;20006;-84
2022/10/26 19:18:54;;;;;;;27.98;13.85;;;15.60;99.90;;;;;;6343240;22;19990;-85
2022/10/26 19:21:20;;;;;;;34.80;21.48;;;15.50;99.90;;;;;;6342794;22;20435;-84
2022/10/26 19:23:51;;;;;;;42.20;23.95;;;15.60;99.90;;;;;;6343152;22;20002;-84
2022/10/26 19:26:20;;;;;;;47.95;25.48;;;15.50;99.90;;;;;;6370430;22;20056;-84
2022/10/26 19:28:46;;;;;;;46.28;28.45;;;15.60;99.90;;;;;;6343160;22;20013;-83
2022/10/26 19:31:13;;;;;;;46.28;26.48;;;15.50;99.90;;;;;;6343294;22;20001;-86
2022/10/26 19:33:39;;;;;;;47.90;24.25;;;15.50;99.90;;;;;;6343339;22;19998;-85
2022/10/26 19:36:09;;;;;;;49.50;22.67;;;15.50;99.90;;;;;;6343154;22;19999;-84
2022/10/26 19:38:35;;;;;;;38.88;20.63;;;15.40;99.90;;;;;;6317065;22;20002;-85
2022/10/26 19:41:07;;;;;;;45.55;22.48;;;15.40;99.90;;;;;;6342362;22;19994;-84
2022/10/26 19:43:34;;;;;;;43.65;21.52;;;15.40;99.90;;;;;;6343063;22;20037;-84
2022/10/26 19:46:12;;;;;;;36.65;17.58;;;15.30;99.90;;;;;;6371067;22;20048;-87
2022/10/26 19:48:38;;;;;;;31.80;15.80;;;15.20;99.90;;;;;;6370557;22;20025;-85
2022/10/26 19:51:05;;;;;;;28.45;12.40;;;15.20;99.90;;;;;;6370092;22;19987;-83
2022/10/26 19:53:31;;;;;;;28.15;11.93;;;15.20;99.90;;;;;;6343006;22;20046;-87